Reno Tahoe International Airport
KRNO : now visible

Airfield :











YOU CAN JOIN US ON...

 
LOGIN :

Register | Disclaimer

   EN    FR    IT 

 









Legend :    VFR   Marginal VFR   IFR   Intensive IFR   Very Intensive IFR
Visi :
Ceiling :
>= 8 km
>= 3000ft
5 to 8 km
1000 to 3000 ft
1500m to 5 km
500 to 1000 ft
800 to 1500m
200 to 500 ft
< 800m
< 200 ft
Symbols :   Thunderstorms  Fog  Heavy snow  Heavy precipitations  Wind > 20 kt






- Airport Elevation : 4415 ft
- IATA code : RNO


KRNO - Reno Tahoe International

CURRENT METAR :
  • 271655Z 22005KT 10SM SCT045 SCT095 BKN180 02/M03 A2972 RMK SLP068 MTN TOPS OBSCD SW THRU W T00221028

EXPIRED METARs :
  • 271555Z 20016G22KT 9SM FEW019 BKN035 OVC065 01/M02 A2969 RMK A02 SLP055 SH VC SW P0000 T00111017
  • 271528Z 17014KT 5SM -SN BR SCT019 BKN030 OVC045 01/M01 A2968 RMK A02 P0000 T00061011
  • 271516Z 18013G22KT 1 1/2SM -SN BR BKN022 OVC065 01/M01 A2968 RMK A02 P0000 T00061011
  • 271455Z 18017KT 6SM -SN BR BKN038 OVC090 01/M01 A2966 RMK A02 PK WND 18026/1356 PRESRR SLPO48 P0001 6//// T00111011 51004
  • 271433Z 18017G26KT 5SM -SN BR OVC025 01/M01 A2963 RMK A02 PK WND 18026/1356 P0000 T00111011

TAF KRNO
Valid from the 27 at 12:00 until the 28 at 12:00 UTC


271134Z 2712/2812 18018G30KT 1SM -SN BLSN OVC005 WS020/22050KT
FM271600 18016G24KT 5SM -SHSN BKN020 OVC035 WS020/22035KT
FM272300 18011G20KT 1/2SM SN OVC006
FM280800 18009KT 1/2SM SN SCT003 OVC006 WS020/19035KT
KZOA FIR / North America



MET'MAP, your aeronautical weather chart ! - Copyright ORBIFLY December 2007 - Disclaimer

ORBIFLY MET'MAP TEAM :

Programming & Development : Alexandra Zaïnal
Concept & original design : Baudouin d'Aumeries
Assistance for programming : Marc-Olivier Méhu
Technical & hardware support : Manuel Goepfert

Contact : metmap@orbifly.com




SOURCES & CREDITS :

   NOAA       Earth
Advisory